Time;durP1;ratioP1;P1;durP2;ratioP2;P2;SDS_P1;SDS_P2;PMS_P1;PMS_P2;Temp;Humidity;BMP_temperature;BMP_pressure;BME280_temperature;BME280_humidity;BME280_pressure;Samples;Min_cycle;Max_cycle;Signal;HPM_P1;HPM_P2
2023/11/17 00:04:21;;;;;;;32.50;16.83;;;;;;;4.93;100.00;100039.91;5127330;56;1140964;-72
2023/11/17 00:09:27;;;;;;;34.53;15.27;;;;;;;4.90;100.00;100040.56;5123900;56;1140677;-72
2023/11/17 00:14:34;;;;;;;86.08;39.38;;;;;;;4.83;100.00;100039.28;5146032;56;1140681;-71
2023/11/17 00:19:39;;;;;;;45.57;21.23;;;;;;;4.87;100.00;100040.78;5127779;56;1142831;-72
2023/11/17 00:24:45;;;;;;;40.30;20.50;;;;;;;4.91;100.00;100040.94;5126637;56;1142792;-72
2023/11/17 00:29:50;;;;;;;67.85;25.17;;;;;;;4.85;100.00;100038.25;5126635;56;1142918;-72
2023/11/17 00:34:57;;;;;;;59.57;18.67;;;;;;;4.82;100.00;100048.07;5112165;56;1140743;-72
2023/11/17 00:40:03;;;;;;;61.60;19.33;;;;;;;4.74;100.00;100047.68;5041863;57;1140657;-72
2023/11/17 00:45:10;;;;;;;42.80;16.43;;;;;;;4.74;100.00;100048.99;5041149;57;1142780;-72
2023/11/17 00:50:16;;;;;;;27.73;9.73;;;;;;;4.74;100.00;100048.52;5061837;57;1142839;-72
2023/11/17 00:55:21;;;;;;;86.67;27.03;;;;;;;4.73;100.00;100049.95;5042924;56;1140940;-72
2023/11/17 01:00:27;;;;;;;65.65;22.98;;;;;;;4.53;100.00;100050.69;5041379;56;1140841;-72
2023/11/17 01:05:34;;;;;;;62.73;18.07;;;;;;;4.44;100.00;100049.91;5063811;56;1141010;-72
2023/11/17 01:10:41;;;;;;;85.60;33.07;;;;;;;4.42;100.00;100052.27;5065148;56;1140815;-72
2023/11/17 01:15:46;;;;;;;37.10;16.00;;;;;;;4.38;100.00;100052.91;5125584;56;1142899;-72
2023/11/17 01:20:52;;;;;;;35.77;16.13;;;;;;;4.34;100.00;100050.09;5079837;56;1142670;-72
2023/11/17 01:25:58;;;;;;;35.37;15.80;;;;;;;4.33;100.00;100056.26;5061969;57;1143187;-72
2023/11/17 01:31:04;;;;;;;36.63;16.67;;;;;;;4.35;100.00;100053.55;5042156;57;1142818;-72
2023/11/17 01:36:13;;;;;;;73.10;27.90;;;;;;;4.36;100.00;100057.39;5096193;56;1140787;-72
2023/11/17 01:41:17;;;;;;;76.17;29.07;;;;;;;4.26;100.00;100056.73;5145272;55;1140754;-72
2023/11/17 01:46:24;;;;;;;33.83;15.10;;;;;;;4.13;100.00;100056.11;5040762;57;1140795;-72
2023/11/17 01:51:31;;;;;;;41.47;15.10;;;;;;;3.96;100.00;100065.90;5137402;56;1141259;-72
2023/11/17 01:56:38;;;;;;;57.80;16.97;;;;;;;3.72;100.00;100066.81;5159371;56;1141030;-72
2023/11/17 02:01:46;;;;;;;77.67;17.33;;;;;;;3.64;100.00;100066.42;5138738;56;1140971;-72
2023/11/17 02:07:23;;;;;;;93.58;17.70;;;;;;;3.65;100.00;100061.57;5138752;56;1143199;-72
2023/11/17 02:12:46;;;;;;;97.17;20.15;;;;;;;3.77;100.00;100064.33;5158998;56;1143034;-72
2023/11/17 02:17:52;;;;;;;376.17;24.20;;;;;;;3.89;100.00;100051.85;5137118;56;1140905;-72
2023/11/17 02:22:59;;;;;;;286.52;21.33;;;;;;;3.95;100.00;100049.36;5056765;56;1143031;-72
2023/11/17 02:28:35;;;;;;;186.53;15.73;;;;;;;3.95;100.00;100055.91;5107131;56;1143017;-72
2023/11/17 02:33:36;;;;;;;126.05;13.15;;;;;;;3.89;100.00;100061.01;5053688;56;1143085;-72
2023/11/17 02:39:25;;;;;;;125.87;12.33;;;;;;;3.65;100.00;100065.03;5102078;56;1142899;-72
2023/11/17 02:44:12;;;;;;;91.50;11.37;;;;;;;3.48;100.00;100067.74;5133053;56;1143193;-72
2023/11/17 02:49:29;;;;;;;116.60;10.47;;;;;;;3.44;100.00;100076.21;5157948;56;1142868;-72
2023/11/17 02:54:34;;;;;;;100.00;11.70;;;;;;;3.32;100.00;100086.04;5126337;56;1144992;-72
2023/11/17 02:59:40;;;;;;;64.83;11.23;;;;;;;3.17;100.00;100097.33;5125940;56;1142896;-72
2023/11/17 03:04:45;;;;;;;49.73;11.30;;;;;;;3.11;100.00;100094.56;5126098;56;1143099;-73
2023/11/17 03:09:54;;;;;;;38.05;11.90;;;;;;;3.02;100.00;100096.38;5087932;56;1140507;-72
2023/11/17 03:15:00;;;;;;;37.67;10.10;;;;;;;2.99;100.00;100094.38;5043013;56;1142542;-72
2023/11/17 03:20:14;;;;;;;52.40;11.30;;;;;;;3.05;100.00;100093.61;5075317;56;1142826;-72
2023/11/17 03:25:17;;;;;;;115.00;13.87;;;;;;;3.24;100.00;100090.82;5121457;56;1140933;-72
2023/11/17 03:30:23;;;;;;;94.60;16.32;;;;;;;3.35;100.00;100098.10;5126750;55;1142722;-73
2023/11/17 03:35:29;;;;;;;100.47;14.83;;;;;;;3.33;100.00;100103.88;5110883;55;1140638;-72
2023/11/17 03:40:36;;;;;;;88.60;11.93;;;;;;;3.34;100.00;100099.88;5070336;56;1143191;-72
2023/11/17 03:45:49;;;;;;;97.40;10.38;;;;;;;3.42;100.00;100104.66;5038366;57;1141115;-72
2023/11/17 03:50:55;;;;;;;88.27;10.67;;;;;;;3.36;100.00;100111.55;5092211;55;1142649;-72
2023/11/17 03:56:00;;;;;;;237.38;16.02;;;;;;;3.31;100.00;100120.09;5142987;56;1140905;-72
2023/11/17 04:01:06;;;;;;;233.50;16.73;;;;;;;3.31;100.00;100117.48;5162869;56;1143054;-72
2023/11/17 04:06:12;;;;;;;179.30;13.10;;;;;;;3.20;100.00;100123.76;5139910;56;1142974;-72
2023/11/17 04:11:18;;;;;;;96.57;13.57;;;;;;;3.03;100.00;100124.19;5150929;55;1142905;-73
2023/11/17 04:16:25;;;;;;;65.08;11.28;;;;;;;2.93;100.00;100108.60;5168468;56;1141042;-75
2023/11/17 04:21:31;;;;;;;84.92;10.40;;;;;;;2.97;100.00;100117.97;5085141;56;1140928;-72
2023/11/17 04:26:36;;;;;;;70.28;10.00;;;;;;;3.00;100.00;100123.50;5057052;57;1140874;-74
2023/11/17 04:31:42;;;;;;;83.22;13.32;;;;;;;3.05;100.00;100137.17;5076845;57;1140794;-73
2023/11/17 04:36:48;;;;;;;132.07;10.83;;;;;;;3.10;100.00;100129.91;5122851;56;1142986;-73
2023/11/17 04:41:53;;;;;;;175.00;12.78;;;;;;;3.08;100.00;100132.61;5142075;56;1143142;-73
2023/11/17 04:46:59;;;;;;;15.73;7.73;;;;;;;3.02;100.00;100135.56;5162725;56;1142972;-73
2023/11/17 04:52:05;;;;;;;55.17;12.43;;;;;;;2.80;100.00;100146.27;5142629;56;1138682;-73
2023/11/17 04:57:14;;;;;;;31.50;8.73;;;;;;;2.62;100.00;100151.12;5128926;56;1140736;-74
2023/11/17 05:02:17;;;;;;;35.43;9.00;;;;;;;2.54;100.00;100155.91;5156090;56;1138701;-74
2023/11/17 05:07:23;;;;;;;23.67;8.60;;;;;;;2.54;100.00;100162.89;4959949;58;1138822;-73
2023/11/17 05:12:29;;;;;;;33.00;9.00;;;;;;;2.54;100.00;100160.28;5125730;56;1138585;-73
2023/11/17 05:17:43;;;;;;;17.73;7.07;;;;;;;2.50;100.00;100161.34;5147159;56;1138847;-73
2023/11/17 05:22:43;;;;;;;15.10;7.73;;;;;;;2.50;100.00;100161.34;5048725;56;1138643;-73
2023/11/17 05:27:49;;;;;;;32.23;7.80;;;;;;;2.53;100.00;100175.55;5041359;56;1138824;-73
2023/11/17 05:32:54;;;;;;;14.27;7.30;;;;;;;2.50;100.00;100169.17;4960260;57;1138970;-73
2023/11/17 05:38:01;;;;;;;101.27;21.57;;;;;;;2.43;100.00;100169.95;5062789;56;1138856;-73
2023/11/17 05:43:07;;;;;;;155.80;36.63;;;;;;;2.36;100.00;100172.47;5042470;56;1142897;-73
2023/11/17 05:48:12;;;;;;;38.23;16.37;;;;;;;2.27;100.00;100173.78;5042427;56;1142987;-73
2023/11/17 05:53:18;;;;;;;18.97;10.40;;;;;;;2.17;100.00;100185.56;5062644;56;1140837;-74
2023/11/17 05:58:23;;;;;;;31.80;16.33;;;;;;;2.06;100.00;100188.70;5110973;56;1140858;-73
2023/11/17 06:03:29;;;;;;;29.30;16.03;;;;;;;2.10;100.00;100191.55;5143081;56;1140913;-73
2023/11/17 06:08:35;;;;;;;64.55;15.32;;;;;;;2.28;100.00;100190.28;5163324;56;1140941;-73
2023/11/17 06:13:41;;;;;;;117.95;19.95;;;;;;;2.34;100.00;100196.03;5142790;56;1140786;-74
2023/11/17 06:18:47;;;;;;;138.37;21.97;;;;;;;2.34;100.00;100203.02;5140765;56;1142741;-74
2023/11/17 06:23:52;;;;;;;62.23;20.40;;;;;;;2.43;100.00;100202.58;5132276;56;1142894;-73
2023/11/17 06:28:59;;;;;;;31.40;13.87;;;;;;;2.40;100.00;100206.18;5152587;56;1140823;-74
2023/11/17 06:34:05;;;;;;;51.77;18.67;;;;;;;2.28;100.00;100212.00;5134529;56;1140899;-73
2023/11/17 06:39:23;;;;;;;22.47;12.70;;;;;;;2.23;100.00;100215.28;5142175;56;1140562;-73
2023/11/17 06:44:25;;;;;;;19.73;10.70;;;;;;;2.38;100.00;100220.22;5081032;56;1140740;-73
2023/11/17 06:49:32;;;;;;;21.60;10.70;;;;;;;2.51;100.00;100232.20;5058134;57;1140910;-74
2023/11/17 06:54:38;;;;;;;15.93;9.77;;;;;;;2.38;100.00;100234.11;5056361;57;1140932;-73
2023/11/17 06:59:43;;;;;;;11.95;7.37;;;;;;;2.19;100.00;100244.20;5075173;57;1139201;-73
2023/11/17 07:04:49;;;;;;;12.83;7.93;;;;;;;2.06;100.00;100246.09;5054177;57;1138885;-73
2023/11/17 07:09:55;;;;;;;9.40;7.07;;;;;;;2.00;100.00;100245.52;5139868;56;1138745;-73
2023/11/17 07:15:03;;;;;;;14.47;7.73;;;;;;;2.00;100.00;100247.66;5160461;56;1136626;-73
2023/11/17 07:20:12;;;;;;;11.93;8.70;;;;;;;2.05;100.00;100253.98;5130963;56;1138933;-73
2023/11/17 07:25:18;;;;;;;10.87;7.33;;;;;;;2.07;100.00;100259.52;5119245;56;1138585;-73
2023/11/17 07:30:23;;;;;;;16.53;9.63;;;;;;;2.14;100.00;100271.80;5113687;56;1138734;-73
2023/11/17 07:35:29;;;;;;;14.17;8.47;;;;;;;2.23;100.00;100274.45;5114343;56;1138904;-73
2023/11/17 07:40:36;;;;;;;14.78;8.60;;;;;;;2.31;100.00;100280.13;4981247;57;1138541;-72
2023/11/17 07:45:42;;;;;;;16.60;8.18;;;;;;;2.46;100.00;100285.47;5075250;56;1138605;-72
2023/11/17 07:50:48;;;;;;;10.13;7.00;;;;;;;2.55;100.00;100282.89;5056252;56;1138870;-73
2023/11/17 07:55:56;;;;;;;13.40;7.30;;;;;;;2.60;100.00;100278.27;5131900;56;1138757;-73
2023/11/17 08:01:03;;;;;;;12.40;7.17;;;;;;;2.60;100.00;100286.10;5155303;56;1138867;-73
2023/11/17 08:06:10;;;;;;;7.97;5.80;;;;;;;2.66;100.00;100296.27;5127387;56;1138680;-73
2023/11/17 08:11:16;;;;;;;11.17;6.00;;;;;;;2.72;100.00;100294.67;4959330;58;1136778;-73
2023/11/17 08:16:21;;;;;;;10.17;6.13;;;;;;;2.73;100.00;100296.36;5146234;56;1138606;-73
2023/11/17 08:21:28;;;;;;;10.83;6.93;;;;;;;2.78;100.00;100298.73;5126505;56;1138991;-73
2023/11/17 08:26:33;;;;;;;10.50;6.77;;;;;;;2.87;100.00;100299.60;4959953;58;1138684;-73
2023/11/17 08:31:39;;;;;;;12.18;6.95;;;;;;;2.91;100.00;100308.95;5147321;56;1138900;-73
2023/11/17 08:36:44;;;;;;;11.90;7.47;;;;;;;2.97;100.00;100316.95;5116347;56;1138913;-73
2023/11/17 08:41:50;;;;;;;10.30;6.07;;;;;;;3.04;100.00;100317.90;5118907;56;1138824;-73
2023/11/17 08:46:56;;;;;;;10.00;6.37;;;;;;;3.06;100.00;100319.10;5139403;56;1138854;-74
2023/11/17 08:52:02;;;;;;;10.63;6.17;;;;;;;3.05;100.00;100330.50;5109504;56;1138532;-74
2023/11/17 08:57:08;;;;;;;5.90;5.27;;;;;;;3.04;100.00;100340.11;5042805;57;1138563;-73
2023/11/17 09:02:14;;;;;;;11.03;7.30;;;;;;;3.06;100.00;100335.63;5065247;57;1136595;-73
2023/11/17 09:07:22;;;;;;;11.07;5.00;;;;;;;3.11;100.00;100348.01;5054426;57;1138714;-73
2023/11/17 09:12:27;;;;;;;11.47;8.03;;;;;;;3.24;100.00;100353.47;5054361;57;1138812;-73
2023/11/17 09:17:34;;;;;;;9.37;6.03;;;;;;;3.31;100.00;100361.86;5074036;57;1139022;-73
2023/11/17 09:22:40;;;;;;;10.93;7.63;;;;;;;3.37;100.00;100364.14;5054254;57;1136985;-74
2023/11/17 09:27:53;;;;;;;10.03;6.50;;;;;;;3.34;100.00;100364.32;5054076;57;1138797;-73
2023/11/17 09:33:02;;;;;;;8.45;5.95;;;;;;;3.35;100.00;100371.24;5054423;57;1138967;-74
2023/11/17 09:38:09;;;;;;;9.60;6.40;;;;;;;3.32;100.00;100360.48;5074769;56;1136825;-73
2023/11/17 09:43:25;;;;;;;12.10;7.63;;;;;;;3.39;100.00;100377.98;5055093;57;1136763;-74
2023/11/17 09:48:36;;;;;;;10.33;6.20;;;;;;;3.47;100.00;100382.38;5055469;57;1148190;-74
2023/11/17 09:53:42;;;;;;;7.80;5.80;;;;;;;3.56;100.00;100372.75;5037707;57;1138756;-73
2023/11/17 09:58:50;;;;;;;7.72;4.87;;;;;;;3.56;100.00;100372.75;4973117;58;1136870;-73
2023/11/17 10:04:02;;;;;;;12.67;5.07;;;;;;;3.72;100.00;100373.66;5019344;56;1136863;-73
2023/11/17 10:09:11;;;;;;;11.70;6.40;;;;;;;3.81;100.00;100377.59;5163256;56;1138805;-73
2023/11/17 10:14:15;;;;;;;7.27;5.20;;;;;;;3.89;100.00;100378.86;4974438;58;1139070;-73
2023/11/17 10:19:23;;;;;;;6.80;5.67;;;;;;;3.95;100.00;100390.80;5083065;56;1136919;-73
2023/11/17 10:24:31;;;;;;;8.17;4.43;;;;;;;3.96;100.00;100394.25;5163885;56;1136893;-73
2023/11/17 10:29:36;;;;;;;7.67;5.33;;;;;;;3.86;100.00;100393.41;5059960;56;1136536;-73
2023/11/17 10:34:42;;;;;;;6.85;5.50;;;;;;;3.90;100.00;100394.09;5059111;57;1136786;-73
2023/11/17 10:39:51;;;;;;;13.30;8.50;;;;;;;3.91;100.00;100393.64;5059503;57;1136865;-73
2023/11/17 10:44:56;;;;;;;15.47;8.30;;;;;;;3.91;100.00;100387.09;5077169;57;1138782;-73
2023/11/17 10:50:11;;;;;;;10.95;5.20;;;;;;;3.94;100.00;100398.25;5058207;57;1138854;-74
2023/11/17 10:55:17;;;;;;;10.18;5.03;;;;;;;3.84;100.00;100388.71;5054258;57;1138896;-73
2023/11/17 11:00:27;;;;;;;32.77;10.90;;;;;;;3.83;100.00;100390.94;5073727;57;1138977;-73
2023/11/17 11:05:32;;;;;;;58.60;22.40;;;;;;;3.87;100.00;100401.64;5131719;56;1140861;-74
2023/11/17 11:10:38;;;;;;;12.17;4.70;;;;;;;3.86;100.00;100400.41;5111291;56;1140869;-74
2023/11/17 11:15:44;;;;;;;45.45;15.75;;;;;;;3.81;100.00;100401.12;5005762;57;1138755;-73
2023/11/17 11:20:49;;;;;;;7.10;4.57;;;;;;;3.81;100.00;100401.12;5127457;56;1140938;-73
2023/11/17 11:25:57;;;;;;;15.70;5.27;;;;;;;3.77;100.00;100408.28;4960611;57;1136907;-74
2023/11/17 11:31:06;;;;;;;29.67;9.60;;;;;;;3.74;100.00;100411.05;4978591;58;1138747;-73
2023/11/17 11:36:14;;;;;;;61.00;25.03;;;;;;;3.69;100.00;100420.89;4960525;58;1138859;-73
2023/11/17 11:41:25;;;;;;;57.23;16.93;;;;;;;3.72;100.00;100414.66;5042839;57;1140934;-73
2023/11/17 11:46:31;;;;;;;13.37;6.63;;;;;;;3.67;100.00;100421.88;5061174;57;1140818;-73
2023/11/17 11:51:56;;;;;;;9.50;5.10;;;;;;;3.63;100.00;100419.06;5045355;56;1138654;-73
2023/11/17 11:57:02;;;;;;;21.57;9.27;;;;;;;3.63;100.00;100421.22;4883708;58;1136543;-73
2023/11/17 12:02:08;;;;;;;38.80;14.43;;;;;;;3.62;100.00;100419.52;4840486;58;1138679;-73
2023/11/17 12:07:37;;;;;;;37.23;15.37;;;;;;;3.62;100.00;100420.83;5102058;56;1141026;-73
2023/11/17 12:12:46;;;;;;;14.13;7.70;;;;;;;3.64;100.00;100427.30;5091631;56;1140915;-73
2023/11/17 12:18:05;;;;;;;19.23;7.92;;;;;;;3.67;100.00;100425.34;5042105;56;1141179;-73
2023/11/17 12:23:12;;;;;;;14.23;6.40;;;;;;;3.70;100.00;100429.12;5042598;57;1138865;-71
2023/11/17 12:28:18;;;;;;;5.60;4.53;;;;;;;3.69;100.00;100431.81;5062193;57;1140735;-73
2023/11/17 12:33:24;;;;;;;11.47;4.97;;;;;;;3.68;100.00;100429.66;5043048;57;1136619;-72
2023/11/17 12:38:30;;;;;;;10.80;4.70;;;;;;;3.68;100.00;100428.34;5042833;57;1138882;-73
2023/11/17 12:43:35;;;;;;;6.70;4.97;;;;;;;3.63;100.00;100430.37;5062525;57;1138863;-74
2023/11/17 12:48:43;;;;;;;12.13;6.05;;;;;;;3.60;100.00;100427.91;5041347;57;1136691;-73
2023/11/17 12:53:49;;;;;;;9.53;5.57;;;;;;;3.60;100.00;100426.59;5081772;56;1138623;-73
2023/11/17 12:58:55;;;;;;;4.97;3.90;;;;;;;3.60;100.00;100436.20;5126025;56;1136553;-73
2023/11/17 13:04:02;;;;;;;5.20;4.07;;;;;;;3.62;100.00;100426.06;5145621;56;1136527;-73
2023/11/17 13:09:09;;;;;;;8.57;4.10;;;;;;;3.63;100.00;100443.91;4954658;58;1136773;-74
2023/11/17 13:14:26;;;;;;;4.10;3.65;;;;;;;3.63;100.00;100451.75;4918983;57;1136521;-72
2023/11/17 13:19:32;;;;;;;4.10;3.03;;;;;;;3.62;100.00;100448.29;5060937;57;1136523;-72
2023/11/17 13:24:38;;;;;;;9.17;3.63;;;;;;;3.65;100.00;100453.38;5041166;57;1136891;-72
2023/11/17 13:29:46;;;;;;;5.30;2.97;;;;;;;3.68;100.00;100454.50;5095681;56;1137114;-73
2023/11/17 13:34:57;;;;;;;3.47;2.97;;;;;;;3.68;100.00;100450.58;5122812;56;1136790;-73
2023/11/17 13:40:03;;;;;;;7.73;6.00;;;;;;;3.70;100.00;100457.89;5146503;56;1136770;-73
2023/11/17 13:45:12;;;;;;;4.67;4.13;;;;;;;3.66;100.00;100462.91;5126319;56;1136753;-72
2023/11/17 13:50:17;;;;;;;3.50;3.20;;;;;;;3.67;100.00;100470.27;5126298;56;1136560;-73
2023/11/17 13:55:28;;;;;;;3.27;2.50;;;;;;;3.66;100.00;100474.68;5145700;56;1136703;-74
2023/11/17 14:00:33;;;;;;;5.03;4.10;;;;;;;3.66;100.00;100478.61;5123941;56;1136814;-74
2023/11/17 14:05:42;;;;;;;4.07;3.17;;;;;;;3.65;100.00;100480.83;5123523;56;1136528;-72
2023/11/17 14:10:47;;;;;;;4.90;3.70;;;;;;;3.70;100.00;100484.05;4959408;57;1138725;-72
2023/11/17 14:15:53;;;;;;;5.30;3.47;;;;;;;3.71;100.00;100477.05;4989996;58;1138618;-72
2023/11/17 14:20:58;;;;;;;5.50;3.03;;;;;;;3.71;100.00;100482.28;5136843;56;1138576;-73
2023/11/17 14:26:08;;;;;;;4.90;4.40;;;;;;;3.75;100.00;100486.44;5106849;55;1138815;-72
2023/11/17 14:31:14;;;;;;;3.80;3.20;;;;;;;3.75;100.00;100483.83;5157541;56;1139270;-73
2023/11/17 14:36:19;;;;;;;3.57;3.03;;;;;;;3.77;100.00;100492.45;5137383;56;1138629;-73
2023/11/17 14:41:25;;;;;;;2.80;2.60;;;;;;;3.80;100.00;100499.69;5138415;56;1138789;-74
2023/11/17 14:46:32;;;;;;;7.10;4.00;;;;;;;3.82;100.00;100500.42;5158099;55;1138737;-73
2023/11/17 14:51:38;;;;;;;4.73;4.23;;;;;;;3.78;100.00;100508.53;5118126;56;1138605;-74
2023/11/17 14:56:44;;;;;;;5.47;4.23;;;;;;;3.78;100.00;100508.53;5136920;56;1136486;-72
2023/11/17 15:01:50;;;;;;;3.92;3.50;;;;;;;3.83;100.00;100514.36;5139219;56;1136738;-73
2023/11/17 15:06:59;;;;;;;21.73;14.73;;;;;;;3.76;100.00;100520.38;5151173;56;1136580;-74
2023/11/17 15:12:04;;;;;;;13.90;10.13;;;;;;;3.73;100.00;100523.59;5138350;56;1140766;-73
2023/11/17 15:17:14;;;;;;;12.63;8.37;;;;;;;3.73;100.00;100523.59;5128822;56;1140962;-73
2023/11/17 15:22:16;;;;;;;29.27;16.12;;;;;;;3.74;100.00;100525.28;5145652;56;1138913;-72
2023/11/17 15:27:22;;;;;;;57.80;38.97;;;;;;;3.77;100.00;100533.84;5126570;56;1142974;-72
2023/11/17 15:32:28;;;;;;;54.10;24.50;;;;;;;3.82;100.00;100542.74;5126603;56;1142852;-72
2023/11/17 15:37:35;;;;;;;45.60;19.57;;;;;;;3.88;100.00;100540.69;5146018;56;1142760;-72
2023/11/17 15:42:44;;;;;;;142.33;59.23;;;;;;;4.01;100.00;100553.16;5125129;56;1142809;-72
2023/11/17 15:47:49;;;;;;;51.07;24.13;;;;;;;4.12;100.00;100546.48;5126673;56;1142786;-72
2023/11/17 15:52:55;;;;;;;145.85;74.58;;;;;;;4.13;100.00;100557.30;5126806;56;1141096;-73
2023/11/17 15:58:00;;;;;;;45.27;22.90;;;;;;;4.13;100.00;100565.61;5139399;55;1142761;-72
2023/11/17 16:03:06;;;;;;;23.53;13.67;;;;;;;4.14;100.00;100574.70;5105266;56;1142817;-73
2023/11/17 16:08:11;;;;;;;45.43;20.27;;;;;;;4.18;100.00;100578.02;5056251;56;1142921;-74
2023/11/17 16:13:17;;;;;;;19.07;12.20;;;;;;;4.19;100.00;100574.48;5075766;56;1142914;-74
2023/11/17 16:18:23;;;;;;;38.17;18.90;;;;;;;4.19;100.00;100572.71;5065266;56;1143028;-74
2023/11/17 16:23:28;;;;;;;21.63;11.43;;;;;;;4.17;100.00;100580.25;5085860;55;1140643;-73
2023/11/17 16:28:34;;;;;;;26.63;12.23;;;;;;;4.15;100.00;100595.18;5104761;56;1140800;-73
2023/11/17 16:33:42;;;;;;;31.37;15.83;;;;;;;4.15;100.00;100599.95;5052659;56;1142787;-75
2023/11/17 16:38:49;;;;;;;43.68;23.18;;;;;;;4.13;100.00;100595.25;5092687;56;1143091;-74
2023/11/17 16:43:55;;;;;;;20.67;10.00;;;;;;;4.16;100.00;100596.87;5137990;56;1143103;-73
2023/11/17 16:49:00;;;;;;;101.83;45.40;;;;;;;4.18;100.00;100601.12;5157940;56;1142746;-73
2023/11/17 16:54:06;;;;;;;276.93;86.70;;;;;;;4.23;100.00;100602.20;5137161;56;1142942;-74
2023/11/17 16:59:13;;;;;;;117.57;39.47;;;;;;;4.24;100.00;100605.21;5089878;56;1142925;-73
2023/11/17 17:04:21;;;;;;;42.87;15.60;;;;;;;4.26;100.00;100602.52;5093183;56;1142888;-73
2023/11/17 17:09:26;;;;;;;35.27;18.20;;;;;;;4.27;100.00;100610.30;5075342;55;1142934;-73
2023/11/17 17:14:37;;;;;;;57.90;36.05;;;;;;;4.24;100.00;100611.30;5103698;55;1143023;-73
2023/11/17 17:19:40;;;;;;;29.92;16.17;;;;;;;4.27;100.00;100613.37;5171684;56;1142918;-75
2023/11/17 17:24:46;;;;;;;39.03;20.62;;;;;;;4.31;100.00;100617.52;5137489;56;1142876;-75
2023/11/17 17:29:51;;;;;;;53.63;28.92;;;;;;;4.26;100.00;100620.39;5137507;56;1140748;-73
2023/11/17 17:34:57;;;;;;;36.53;22.00;;;;;;;4.23;100.00;100625.77;5136994;56;1141255;-74
2023/11/17 17:40:08;;;;;;;54.47;25.07;;;;;;;4.24;100.00;100632.70;5157307;56;1140944;-73
2023/11/17 17:45:12;;;;;;;205.90;66.37;;;;;;;4.27;100.00;100630.39;5134274;55;1143155;-73
2023/11/17 17:50:19;;;;;;;123.40;45.87;;;;;;;4.32;100.00;100637.08;5100711;56;1144995;-74
2023/11/17 17:55:28;;;;;;;29.00;16.20;;;;;;;4.43;100.00;100639.18;5073625;56;1144916;-74
2023/11/17 18:00:33;;;;;;;28.40;18.50;;;;;;;4.48;100.00;100641.93;5063104;56;1143130;-74
2023/11/17 18:05:40;;;;;;;47.50;26.57;;;;;;;4.53;100.00;100639.09;5133971;56;1140912;-75
2023/11/17 18:10:45;;;;;;;36.95;23.00;;;;;;;4.53;100.00;100636.01;5082522;56;1140934;-73
2023/11/17 18:15:51;;;;;;;60.63;31.70;;;;;;;4.55;100.00;100638.09;5054213;56;1140622;-73
2023/11/17 18:21:01;;;;;;;64.43;25.13;;;;;;;4.54;100.00;100644.25;5082212;56;1143168;-73
2023/11/17 18:26:05;;;;;;;32.70;25.63;;;;;;;4.56;100.00;100644.18;5153885;56;1142927;-73
2023/11/17 18:31:11;;;;;;;34.07;18.03;;;;;;;4.60;100.00;100645.69;5137231;56;1143130;-72
2023/11/17 18:36:16;;;;;;;111.67;48.43;;;;;;;4.56;100.00;100648.95;5142739;56;1143007;-74
2023/11/17 18:41:22;;;;;;;90.57;34.90;;;;;;;4.60;100.00;100654.86;5162519;56;1145007;-74
2023/11/17 18:46:28;;;;;;;38.80;21.63;;;;;;;4.60;100.00;100659.64;5142411;56;1143115;-74
2023/11/17 18:51:42;;;;;;;42.00;25.10;;;;;;;4.60;100.00;100665.34;5080724;55;1143132;-73
2023/11/17 18:56:43;;;;;;;58.37;24.90;;;;;;;4.54;100.00;100670.45;5163040;56;1141243;-74
2023/11/17 19:01:48;;;;;;;65.70;31.60;;;;;;;4.54;100.00;100667.83;5142473;56;1150353;-74
2023/11/17 19:06:54;;;;;;;62.88;30.70;;;;;;;4.52;100.00;100667.05;5122146;56;1143092;-73
2023/11/17 19:11:59;;;;;;;49.10;24.52;;;;;;;4.57;100.00;100676.00;5126753;55;1142898;-74
2023/11/17 19:17:05;;;;;;;52.73;25.27;;;;;;;4.59;100.00;100675.42;5142182;56;1142802;-72
2023/11/17 19:22:11;;;;;;;36.73;18.70;;;;;;;4.59;100.00;100680.20;5139177;56;1142896;-74
2023/11/17 19:27:18;;;;;;;17.63;13.13;;;;;;;4.57;100.00;100682.55;5013748;57;1143110;-73
2023/11/17 19:32:24;;;;;;;18.30;12.13;;;;;;;4.55;100.00;100674.76;5092672;56;1142956;-74
2023/11/17 19:37:29;;;;;;;21.87;12.30;;;;;;;4.58;100.00;100677.69;5067785;56;1142753;-74
2023/11/17 19:42:39;;;;;;;27.93;15.57;;;;;;;4.55;100.00;100683.92;5062596;56;1142995;-74
2023/11/17 19:47:45;;;;;;;24.20;14.20;;;;;;;4.54;100.00;100690.09;5071239;56;1143090;-73
2023/11/17 19:52:51;;;;;;;22.40;12.88;;;;;;;4.50;100.00;100693.77;5050163;56;1143122;-74
2023/11/17 19:57:56;;;;;;;19.97;11.30;;;;;;;4.44;100.00;100689.29;5042120;57;1143047;-73
2023/11/17 20:03:06;;;;;;;20.03;12.90;;;;;;;4.41;100.00;100695.55;5076971;56;1142846;-73
2023/11/17 20:08:13;;;;;;;37.47;16.33;;;;;;;4.51;100.00;100699.86;5103834;56;1142864;-72
2023/11/17 20:13:17;;;;;;;29.83;16.73;;;;;;;4.57;100.00;100696.48;5041772;57;1142791;-73
2023/11/17 20:18:26;;;;;;;28.30;16.37;;;;;;;4.57;100.00;100700.42;5061747;57;1142736;-73
2023/11/17 20:23:30;;;;;;;32.60;17.53;;;;;;;4.63;100.00;100699.70;5094403;56;1142856;-73
2023/11/17 20:28:35;;;;;;;58.30;27.45;;;;;;;4.66;100.00;100704.80;5125729;56;1142722;-74
2023/11/17 20:33:42;;;;;;;73.80;26.57;;;;;;;4.71;100.00;100714.59;5145919;56;1142794;-75
2023/11/17 20:38:48;;;;;;;55.88;25.37;;;;;;;4.70;100.00;100729.46;5126119;56;1141017;-75
2023/11/17 20:43:53;;;;;;;40.05;19.73;;;;;;;4.66;100.00;100730.99;5108862;56;1140848;-73
2023/11/17 20:48:59;;;;;;;47.07;20.10;;;;;;;4.66;100.00;100738.39;5079374;56;1143073;-73
2023/11/17 20:54:10;;;;;;;37.63;16.63;;;;;;;4.65;100.00;100736.69;5086341;56;1143036;-74
2023/11/17 20:59:13;;;;;;;24.57;12.80;;;;;;;4.67;100.00;100746.64;5114074;55;1143003;-74
2023/11/17 21:04:19;;;;;;;27.00;12.83;;;;;;;4.60;100.00;100752.63;5085876;56;1142967;-74
2023/11/17 21:09:27;;;;;;;19.30;10.10;;;;;;;4.51;100.00;100758.33;5061859;56;1142846;-73
2023/11/17 21:14:32;;;;;;;12.67;7.50;;;;;;;4.47;100.00;100765.94;4998471;57;1142725;-73
2023/11/17 21:19:37;;;;;;;20.00;10.73;;;;;;;4.36;100.00;100772.63;5092368;56;1140823;-74
2023/11/17 21:24:43;;;;;;;16.97;9.97;;;;;;;4.27;100.00;100787.02;5074305;55;1142869;-74
2023/11/17 21:29:48;;;;;;;14.43;8.60;;;;;;;4.26;100.00;100791.02;5099936;56;1140980;-74
2023/11/17 21:34:57;;;;;;;25.23;10.18;;;;;;;4.20;100.00;100803.45;5141678;56;1140857;-73
2023/11/17 21:40:01;;;;;;;20.52;10.35;;;;;;;4.19;100.00;100809.61;5162320;56;1144345;-74
2023/11/17 21:45:14;;;;;;;16.83;9.70;;;;;;;4.20;100.00;100818.31;5142221;56;1143076;-74
2023/11/17 21:50:18;;;;;;;18.07;11.43;;;;;;;4.24;100.00;100821.19;5141567;56;1140845;-74
2023/11/17 21:55:24;;;;;;;86.73;35.33;;;;;;;4.24;100.00;100822.03;5160919;56;1142980;-74
2023/11/17 22:00:30;;;;;;;42.40;20.35;;;;;;;4.24;100.00;100835.12;5057196;57;1140769;-74
2023/11/17 22:05:36;;;;;;;45.87;20.30;;;;;;;4.27;100.00;100839.84;5116685;56;1140851;-73
2023/11/17 22:10:43;;;;;;;37.07;16.73;;;;;;;4.30;100.00;100850.98;5162654;56;1140859;-73
2023/11/17 22:15:49;;;;;;;24.43;12.90;;;;;;;4.28;100.00;100847.59;5141549;56;1142998;-75
2023/11/17 22:20:55;;;;;;;35.87;17.73;;;;;;;4.32;100.00;100860.94;5141443;56;1143415;-74
2023/11/17 22:26:00;;;;;;;38.90;18.93;;;;;;;4.36;100.00;100855.11;5146526;56;1142980;-73
2023/11/17 22:31:06;;;;;;;36.93;15.93;;;;;;;4.38;100.00;100854.12;5057488;56;1143023;-73
2023/11/17 22:36:12;;;;;;;42.13;19.23;;;;;;;4.40;100.00;100854.05;5057810;56;1140928;-72
2023/11/17 22:41:18;;;;;;;70.43;28.73;;;;;;;4.35;100.00;100870.42;5162607;56;1140723;-74
2023/11/17 22:46:24;;;;;;;82.03;29.73;;;;;;;4.22;100.00;100873.61;5143049;56;1140745;-75
2023/11/17 22:51:30;;;;;;;86.20;30.40;;;;;;;4.14;100.00;100881.41;5138365;56;1140597;-74